Time;durP1;ratioP1;P1;durP2;ratioP2;P2;SDS_P1;SDS_P2;PMS_P1;PMS_P2;Temp;Humidity;BMP_temperature;BMP_pressure;BME280_temperature;BME280_humidity;BME280_pressure;Samples;Min_cycle;Max_cycle;Signal;HPM_P1;HPM_P2
2022/03/03 00:02:23;;;;;;;18.40;11.87;;;1.90;99.90;;;;;;5062821;28;21009;-78
2022/03/03 00:04:56;;;;;;;20.50;11.10;;;1.90;99.90;;;;;;5063213;28;20468;-78
2022/03/03 00:07:23;;;;;;;19.07;11.40;;;1.80;99.90;;;;;;5061821;28;20444;-79
2022/03/03 00:09:50;;;;;;;24.17;12.00;;;1.80;99.90;;;;;;5061816;28;20463;-79
2022/03/03 00:12:18;;;;;;;18.53;12.90;;;1.70;99.90;;;;;;5062044;28;20452;-80
2022/03/03 00:14:45;;;;;;;18.27;12.23;;;1.70;99.90;;;;;;5058277;28;20438;-79
2022/03/03 00:17:12;;;;;;;21.53;11.70;;;1.70;99.90;;;;;;5059067;28;20483;-79
2022/03/03 00:19:40;;;;;;;18.17;11.80;;;1.70;99.90;;;;;;5058242;28;20455;-79
2022/03/03 00:22:07;;;;;;;20.70;12.37;;;1.70;99.90;;;;;;5059370;28;21079;-79
2022/03/03 00:24:34;;;;;;;18.17;11.93;;;1.70;99.90;;;;;;5057411;28;20563;-79
2022/03/03 00:27:01;;;;;;;13.97;11.10;;;1.60;99.90;;;;;;5058685;28;20943;-79
2022/03/03 00:29:29;;;;;;;22.53;11.60;;;1.60;99.90;;;;;;5057562;28;21180;-79
2022/03/03 00:31:56;;;;;;;23.23;11.90;;;1.50;99.90;;;;;;5058512;28;20522;-80
2022/03/03 00:34:22;;;;;;;17.90;11.60;;;1.50;99.90;;;;;;5057950;28;20551;-79
2022/03/03 00:36:49;;;;;;;15.70;10.10;;;1.40;99.90;;;;;;5058009;28;20868;-80
2022/03/03 00:39:16;;;;;;;18.37;11.97;;;1.40;99.90;;;;;;5057659;28;20451;-80
2022/03/03 00:41:43;;;;;;;17.70;11.80;;;1.30;99.90;;;;;;5058318;28;20502;-80
2022/03/03 00:44:10;;;;;;;18.10;11.53;;;1.30;99.90;;;;;;5057400;28;20453;-80
2022/03/03 00:46:38;;;;;;;21.03;11.40;;;1.30;99.90;;;;;;5057922;28;20444;-79
2022/03/03 00:49:06;;;;;;;16.60;11.10;;;1.40;99.90;;;;;;5058956;28;20973;-79
2022/03/03 00:51:34;;;;;;;17.73;10.83;;;1.40;99.90;;;;;;5057526;28;20456;-79
2022/03/03 00:54:01;;;;;;;17.97;12.47;;;1.50;99.90;;;;;;5057285;28;21050;-79
2022/03/03 00:56:28;;;;;;;19.97;12.23;;;1.40;99.90;;;;;;5056870;28;20476;-80
2022/03/03 00:58:55;;;;;;;15.37;11.50;;;1.40;99.90;;;;;;5058156;28;20441;-80
2022/03/03 01:01:22;;;;;;;18.10;11.37;;;1.50;99.90;;;;;;5057902;28;20426;-78
2022/03/03 01:03:50;;;;;;;23.53;11.80;;;1.50;99.90;;;;;;5058682;28;20495;-79
2022/03/03 01:06:17;;;;;;;17.50;12.30;;;1.50;99.90;;;;;;5059700;28;20418;-79
2022/03/03 01:08:43;;;;;;;19.03;12.20;;;1.50;99.90;;;;;;5060075;28;20451;-79
2022/03/03 01:11:10;;;;;;;19.33;12.00;;;1.40;99.90;;;;;;5060038;28;20794;-77
2022/03/03 01:13:37;;;;;;;22.37;12.00;;;1.40;99.90;;;;;;5059458;28;20534;-79
2022/03/03 01:16:04;;;;;;;16.33;12.13;;;1.40;99.90;;;;;;5060180;28;20418;-79
2022/03/03 01:18:31;;;;;;;19.10;11.60;;;1.40;99.90;;;;;;5059553;28;20859;-80
2022/03/03 01:20:59;;;;;;;16.47;12.10;;;1.30;99.90;;;;;;5060063;28;20999;-79
2022/03/03 01:23:26;;;;;;;19.80;12.10;;;1.20;99.90;;;;;;5057564;28;20451;-81
2022/03/03 01:25:53;;;;;;;23.90;12.13;;;1.20;99.90;;;;;;5057883;28;20422;-80
2022/03/03 01:28:21;;;;;;;22.43;12.43;;;1.20;99.90;;;;;;5057696;28;20474;-79
2022/03/03 01:30:48;;;;;;;20.47;12.37;;;1.20;99.90;;;;;;5057927;28;20463;-79
2022/03/03 01:33:15;;;;;;;18.43;11.53;;;1.20;99.90;;;;;;5056945;28;20574;-80
2022/03/03 01:35:42;;;;;;;18.70;11.63;;;1.10;99.90;;;;;;5057459;28;20422;-80
2022/03/03 01:38:10;;;;;;;19.03;12.10;;;1.10;99.90;;;;;;5057393;28;20961;-79
2022/03/03 01:40:37;;;;;;;17.55;11.50;;;1.10;99.90;;;;;;5057619;28;20430;-79
2022/03/03 01:43:05;;;;;;;16.73;11.20;;;1.10;99.90;;;;;;5057026;28;20810;-80
2022/03/03 01:45:32;;;;;;;16.50;10.80;;;1.00;99.90;;;;;;5057293;28;20447;-81
2022/03/03 01:47:59;;;;;;;21.70;12.27;;;1.00;99.90;;;;;;5057535;28;20486;-80
2022/03/03 01:50:26;;;;;;;16.67;11.50;;;1.00;99.90;;;;;;5057388;28;20212;-80
2022/03/03 01:52:53;;;;;;;18.90;10.93;;;0.90;99.90;;;;;;5058012;28;20826;-80
2022/03/03 01:55:22;;;;;;;17.63;10.90;;;0.90;99.90;;;;;;5057314;28;20429;-81
2022/03/03 01:57:49;;;;;;;20.13;12.27;;;0.90;99.90;;;;;;5056771;28;20422;-81
2022/03/03 02:00:17;;;;;;;19.55;11.88;;;0.90;99.90;;;;;;5057642;28;20504;-80
2022/03/03 02:02:44;;;;;;;17.90;11.47;;;0.90;99.90;;;;;;5057254;28;20219;-80
2022/03/03 02:05:11;;;;;;;16.97;11.63;;;0.90;99.90;;;;;;5056185;28;20960;-81
2022/03/03 02:07:38;;;;;;;19.20;12.40;;;0.80;99.90;;;;;;5057402;28;20883;-80
2022/03/03 02:10:06;;;;;;;21.90;13.70;;;0.80;99.90;;;;;;5057331;28;20426;-80
2022/03/03 02:12:34;;;;;;;16.15;11.07;;;0.80;99.90;;;;;;5057558;28;20451;-80
2022/03/03 02:15:01;;;;;;;16.53;11.23;;;0.80;99.90;;;;;;5056330;28;20724;-80
2022/03/03 02:17:28;;;;;;;20.60;11.55;;;0.70;99.90;;;;;;5056857;28;20436;-80
2022/03/03 02:19:55;;;;;;;18.52;11.85;;;0.70;99.90;;;;;;5056612;28;20236;-80
2022/03/03 02:22:23;;;;;;;17.80;12.13;;;0.70;99.90;;;;;;5056588;28;20642;-79
2022/03/03 02:24:49;;;;;;;17.17;11.60;;;0.70;99.90;;;;;;5057351;28;20565;-79
2022/03/03 02:27:18;;;;;;;17.52;11.40;;;0.70;99.90;;;;;;5056889;28;20483;-78
2022/03/03 02:29:44;;;;;;;16.73;11.07;;;0.70;99.90;;;;;;5056694;28;20199;-81
2022/03/03 02:32:11;;;;;;;15.13;10.55;;;0.70;99.90;;;;;;5056185;28;20221;-79
2022/03/03 02:34:38;;;;;;;16.63;11.40;;;0.60;99.90;;;;;;5056676;28;20232;-80
2022/03/03 02:37:05;;;;;;;20.17;12.65;;;0.60;99.90;;;;;;5056313;28;20487;-79
2022/03/03 02:39:34;;;;;;;17.50;10.80;;;0.60;99.90;;;;;;5056454;28;20203;-80
2022/03/03 02:42:00;;;;;;;16.17;11.30;;;0.60;99.90;;;;;;5056028;28;20462;-80
2022/03/03 02:44:27;;;;;;;22.20;12.32;;;0.50;99.90;;;;;;5056162;28;20225;-80
2022/03/03 02:46:54;;;;;;;21.17;12.60;;;0.60;99.90;;;;;;5047765;28;20697;-81
2022/03/03 02:49:21;;;;;;;22.58;12.38;;;0.50;99.90;;;;;;5056492;28;20825;-80
2022/03/03 02:51:48;;;;;;;20.38;12.05;;;0.40;99.90;;;;;;5055854;28;20205;-81
2022/03/03 02:54:15;;;;;;;22.20;12.33;;;0.40;99.90;;;;;;5056114;28;20259;-81
2022/03/03 02:59:27;;;;;;;17.13;11.35;;;0.50;99.90;;;;;;5037080;28;20439;-80
2022/03/03 03:01:54;;;;;;;20.10;11.20;;;0.40;99.90;;;;;;5042840;28;20219;-81
2022/03/03 03:04:21;;;;;;;18.15;11.65;;;0.40;99.90;;;;;;5055299;28;20550;-78
2022/03/03 03:06:47;;;;;;;19.10;12.45;;;0.50;99.90;;;;;;5056062;28;20284;-79
2022/03/03 03:09:14;;;;;;;16.15;11.18;;;0.40;99.90;;;;;;5056448;28;20198;-80
2022/03/03 03:11:43;;;;;;;19.90;12.18;;;0.40;99.90;;;;;;5056053;28;20582;-79
2022/03/03 03:14:09;;;;;;;20.60;11.48;;;0.30;99.90;;;;;;5055408;28;20224;-80
2022/03/03 03:16:36;;;;;;;16.83;10.97;;;0.30;99.90;;;;;;5058449;28;20199;-79
2022/03/03 03:19:03;;;;;;;17.42;11.20;;;0.30;99.90;;;;;;5060373;28;20460;-81
2022/03/03 03:21:30;;;;;;;18.13;11.48;;;0.30;99.90;;;;;;5060209;28;20229;-79
2022/03/03 03:23:56;;;;;;;15.67;11.07;;;0.30;99.90;;;;;;5059867;28;20229;-80
2022/03/03 03:26:24;;;;;;;17.88;11.00;;;0.30;99.90;;;;;;5060794;28;20466;-81
2022/03/03 03:28:52;;;;;;;18.23;12.25;;;0.30;99.90;;;;;;5059817;28;20870;-80
2022/03/03 03:31:19;;;;;;;17.27;10.90;;;0.20;99.90;;;;;;5061048;28;20208;-81
2022/03/03 03:33:45;;;;;;;14.80;10.40;;;0.20;99.90;;;;;;5059448;28;20298;-81
2022/03/03 03:36:12;;;;;;;18.00;11.70;;;0.20;99.90;;;;;;5060116;28;20200;-82
2022/03/03 03:38:40;;;;;;;16.07;11.90;;;0.20;99.90;;;;;;5060070;28;20608;-80
2022/03/03 03:41:07;;;;;;;19.38;12.30;;;0.10;99.90;;;;;;5060038;28;20550;-81
2022/03/03 03:43:34;;;;;;;23.80;11.80;;;0.10;99.90;;;;;;5057372;28;20311;-79
2022/03/03 03:46:02;;;;;;;19.95;11.25;;;0.10;99.90;;;;;;5057508;28;20299;-80
2022/03/03 03:48:28;;;;;;;15.60;10.70;;;0.10;99.90;;;;;;5060285;28;20218;-81
2022/03/03 03:50:55;;;;;;;16.45;11.90;;;0.10;99.90;;;;;;5059759;28;20208;-81
2022/03/03 03:53:22;;;;;;;21.70;12.07;;;0.00;99.90;;;;;;5059169;28;20316;-81
2022/03/03 03:55:49;;;;;;;16.05;12.02;;;0.00;99.90;;;;;;5059739;28;20699;-80
2022/03/03 03:58:15;;;;;;;17.80;11.00;;;0.00;99.90;;;;;;5039773;28;20198;-80
2022/03/03 04:00:42;;;;;;;17.45;10.98;;;0.00;99.90;;;;;;5039724;28;20206;-81
2022/03/03 04:03:11;;;;;;;22.13;13.45;;;0.00;99.90;;;;;;5059080;28;20232;-79
2022/03/03 04:05:37;;;;;;;21.10;12.60;;;0.00;99.90;;;;;;5060073;28;20204;-79
2022/03/03 04:08:05;;;;;;;16.55;11.35;;;0.00;99.90;;;;;;5059643;28;20227;-81
2022/03/03 04:10:32;;;;;;;16.80;11.02;;;0.00;99.90;;;;;;5059387;28;20560;-79
2022/03/03 04:12:59;;;;;;;17.83;11.82;;;0.00;99.90;;;;;;5059206;28;20203;-78
2022/03/03 04:15:26;;;;;;;19.38;12.20;;;0.00;99.90;;;;;;5054969;28;20202;-80
2022/03/03 04:17:52;;;;;;;20.08;12.07;;;0.00;99.90;;;;;;5058681;28;20197;-80
2022/03/03 04:20:22;;;;;;;18.95;12.07;;;-0.10;99.90;;;;;;5059086;28;20304;-82
2022/03/03 04:22:50;;;;;;;16.55;11.32;;;-0.10;99.90;;;;;;5039633;28;20217;-80
2022/03/03 04:25:17;;;;;;;17.35;11.52;;;-0.10;99.90;;;;;;5039372;28;20235;-80
2022/03/03 04:27:44;;;;;;;20.08;12.35;;;-0.10;99.90;;;;;;5058508;28;20704;-81
2022/03/03 04:30:12;;;;;;;20.58;12.82;;;-0.20;99.90;;;;;;5060148;28;20265;-80
2022/03/03 04:32:39;;;;;;;19.77;12.35;;;-0.10;99.90;;;;;;5058894;28;20208;-79
2022/03/03 04:35:08;;;;;;;16.85;12.10;;;-0.10;99.90;;;;;;5057832;28;20212;-79
2022/03/03 04:37:36;;;;;;;21.55;12.43;;;-0.10;99.90;;;;;;5059681;28;20207;-80
2022/03/03 04:40:05;;;;;;;19.83;11.35;;;-0.10;99.90;;;;;;5059363;28;20290;-80
2022/03/03 04:42:32;;;;;;;19.13;11.60;;;-0.10;99.90;;;;;;5058322;28;20240;-79
2022/03/03 04:44:58;;;;;;;17.88;11.52;;;-0.20;99.90;;;;;;5057440;28;20228;-79
2022/03/03 04:47:25;;;;;;;20.75;12.52;;;-0.20;99.90;;;;;;5059004;28;20228;-80
2022/03/03 04:49:52;;;;;;;17.02;11.95;;;-0.20;99.90;;;;;;5058853;28;20200;-80
2022/03/03 04:52:19;;;;;;;20.13;12.00;;;-0.30;99.90;;;;;;5059516;28;20208;-80
2022/03/03 04:54:47;;;;;;;14.57;11.25;;;-0.20;99.90;;;;;;5057529;28;20232;-80
2022/03/03 04:57:14;;;;;;;16.95;12.05;;;-0.20;99.90;;;;;;5058692;28;20209;-80
2022/03/03 04:59:40;;;;;;;18.58;11.50;;;-0.30;99.90;;;;;;5056698;28;20212;-79
2022/03/03 05:02:07;;;;;;;15.73;11.18;;;-0.30;99.90;;;;;;5056732;28;20204;-79
2022/03/03 05:04:34;;;;;;;20.40;12.73;;;-0.30;99.90;;;;;;5056097;28;20306;-78
2022/03/03 05:07:01;;;;;;;18.63;11.90;;;-0.30;99.90;;;;;;5058655;28;20597;-81
2022/03/03 05:09:28;;;;;;;21.17;14.20;;;-0.30;99.90;;;;;;5058662;28;20210;-80
2022/03/03 05:11:57;;;;;;;21.13;12.63;;;-0.30;99.90;;;;;;5058470;28;20231;-81
2022/03/03 05:14:24;;;;;;;17.42;11.57;;;-0.30;99.90;;;;;;5057917;28;20270;-79
2022/03/03 05:16:51;;;;;;;17.70;12.13;;;-0.30;99.90;;;;;;5061938;28;20200;-81
2022/03/03 05:19:17;;;;;;;23.70;13.63;;;-0.40;99.90;;;;;;5068919;28;20197;-80
2022/03/03 05:21:44;;;;;;;17.48;11.75;;;-0.40;99.90;;;;;;5058418;28;20215;-80
2022/03/03 05:24:11;;;;;;;17.83;12.40;;;-0.40;99.90;;;;;;5056361;28;20227;-79
2022/03/03 05:26:38;;;;;;;20.55;11.57;;;-0.40;99.90;;;;;;5057251;28;20208;-81
2022/03/03 05:29:06;;;;;;;18.63;12.40;;;-0.40;99.90;;;;;;5056983;28;20226;-80
2022/03/03 05:31:33;;;;;;;17.55;12.45;;;-0.40;99.90;;;;;;5057927;28;20213;-80
2022/03/03 05:34:03;;;;;;;18.80;12.48;;;-0.40;99.90;;;;;;5058295;28;20262;-80
2022/03/03 05:36:31;;;;;;;16.25;10.77;;;-0.40;99.90;;;;;;5057483;28;20220;-82
2022/03/03 05:38:58;;;;;;;19.23;12.00;;;-0.40;99.90;;;;;;5058866;28;20208;-83
2022/03/03 05:41:25;;;;;;;16.58;10.65;;;-0.50;99.90;;;;;;5059199;28;20201;-84
2022/03/03 05:43:52;;;;;;;19.40;11.85;;;-0.50;99.90;;;;;;5057599;28;20220;-84
2022/03/03 05:46:21;;;;;;;19.02;11.68;;;-0.50;99.90;;;;;;5058547;28;20212;-83
2022/03/03 05:48:49;;;;;;;17.52;11.75;;;-0.40;99.90;;;;;;5058947;28;20280;-83
2022/03/03 05:51:16;;;;;;;17.85;12.13;;;-0.60;99.90;;;;;;5059077;28;20227;-82
2022/03/03 05:53:42;;;;;;;18.35;11.90;;;-0.50;99.90;;;;;;5058270;28;20228;-83
2022/03/03 05:56:10;;;;;;;19.38;11.30;;;-0.60;99.90;;;;;;5059076;28;20210;-83
2022/03/03 05:58:42;;;;;;;18.45;11.48;;;-0.60;99.90;;;;;;5058903;28;20298;-82
2022/03/03 06:01:11;;;;;;;15.55;11.35;;;-0.60;99.90;;;;;;5059005;28;20197;-83
2022/03/03 06:03:40;;;;;;;18.70;10.18;;;-0.60;99.90;;;;;;5058903;28;20239;-83
2022/03/03 06:06:14;;;;;;;20.52;12.05;;;-0.50;99.90;;;;;;5059004;28;20214;-82
2022/03/03 06:08:43;;;;;;;16.40;11.13;;;-0.50;99.90;;;;;;5059844;28;20216;-83
2022/03/03 06:11:15;;;;;;;17.58;10.88;;;-0.50;99.90;;;;;;5059614;28;20294;-82
2022/03/03 06:13:46;;;;;;;16.80;11.75;;;-0.50;99.90;;;;;;5058209;28;20226;-83
2022/03/03 06:16:17;;;;;;;19.75;11.90;;;-0.50;99.90;;;;;;5058497;28;20199;-83
2022/03/03 06:18:46;;;;;;;16.88;11.50;;;-0.60;99.90;;;;;;5058293;28;20196;-82
2022/03/03 06:21:13;;;;;;;20.13;12.98;;;-0.60;99.90;;;;;;5057778;28;20201;-82
2022/03/03 06:23:40;;;;;;;20.58;12.57;;;-0.50;99.90;;;;;;5058257;28;20242;-82
2022/03/03 06:26:11;;;;;;;17.85;11.73;;;-0.50;99.90;;;;;;5058958;28;20667;-82
2022/03/03 06:28:38;;;;;;;19.55;11.23;;;-0.40;99.90;;;;;;5056025;28;20215;-82
2022/03/03 06:31:06;;;;;;;22.90;12.95;;;-0.40;99.90;;;;;;5057004;28;20208;-83
2022/03/03 06:33:33;;;;;;;17.80;9.95;;;-0.40;99.90;;;;;;5052483;28;20319;-83
2022/03/03 06:36:01;;;;;;;19.23;10.75;;;-0.30;99.90;;;;;;5055245;28;20731;-83
2022/03/03 06:38:29;;;;;;;17.55;11.57;;;-0.20;99.90;;;;;;5057587;28;20205;-82
2022/03/03 06:40:57;;;;;;;17.15;11.02;;;-0.10;99.90;;;;;;5051876;28;20206;-84
2022/03/03 06:43:24;;;;;;;17.98;11.57;;;-0.10;99.90;;;;;;5055433;28;20270;-82
2022/03/03 06:45:52;;;;;;;19.77;9.60;;;-0.10;99.90;;;;;;5055473;28;20576;-82
2022/03/03 06:48:19;;;;;;;15.32;10.57;;;0.00;99.90;;;;;;5055649;28;20230;-84
2022/03/03 06:50:53;;;;;;;15.70;10.93;;;0.20;99.90;;;;;;5060020;28;20201;-81
2022/03/03 06:53:28;;;;;;;17.83;11.40;;;0.20;99.90;;;;;;5061053;28;20310;-82
2022/03/03 06:56:00;;;;;;;18.80;11.95;;;0.30;99.90;;;;;;5062621;28;20201;-81
2022/03/03 06:58:30;;;;;;;21.48;12.02;;;0.40;99.90;;;;;;5055524;28;20233;-82
2022/03/03 07:00:57;;;;;;;17.52;10.45;;;0.40;99.90;;;;;;5058244;28;20211;-81
2022/03/03 07:03:26;;;;;;;17.92;11.20;;;0.50;99.90;;;;;;5053580;28;20228;-82
2022/03/03 07:05:53;;;;;;;17.20;10.52;;;0.50;99.90;;;;;;5060342;28;20595;-81
2022/03/03 07:08:22;;;;;;;19.55;11.98;;;0.50;99.90;;;;;;5062232;28;20281;-81
2022/03/03 07:10:49;;;;;;;15.88;10.55;;;0.60;99.90;;;;;;5061453;28;20205;-81
2022/03/03 07:13:17;;;;;;;20.77;11.60;;;0.70;99.90;;;;;;5058798;28;20242;-81
2022/03/03 07:15:49;;;;;;;16.83;11.27;;;0.70;99.90;;;;;;5062022;28;20220;-82
2022/03/03 07:18:19;;;;;;;18.80;11.98;;;0.80;99.90;;;;;;5062535;28;20201;-81
2022/03/03 07:20:54;;;;;;;22.90;12.70;;;0.90;99.90;;;;;;5060296;28;20225;-82
2022/03/03 07:23:35;;;;;;;22.80;11.20;;;1.00;99.90;;;;;;5063864;28;20252;-81
2022/03/03 07:26:04;;;;;;;19.33;11.35;;;1.00;99.90;;;;;;5056399;28;20508;-80
2022/03/03 07:28:32;;;;;;;17.03;10.20;;;1.10;99.90;;;;;;5058208;28;20228;-82
2022/03/03 07:31:02;;;;;;;17.90;10.57;;;1.20;99.90;;;;;;5065908;28;20461;-82
2022/03/03 07:33:38;;;;;;;20.60;12.40;;;1.20;99.90;;;;;;5061060;28;20476;-83
2022/03/03 07:36:08;;;;;;;18.63;12.17;;;1.30;99.90;;;;;;5060433;28;21260;-81
2022/03/03 07:38:38;;;;;;;17.80;11.80;;;1.40;99.90;;;;;;5071799;28;20428;-80
2022/03/03 07:41:07;;;;;;;19.83;12.10;;;1.40;99.90;;;;;;5061632;28;20457;-79
2022/03/03 07:43:34;;;;;;;22.00;11.10;;;1.50;99.90;;;;;;5062567;28;20475;-81
2022/03/03 07:46:02;;;;;;;16.60;10.60;;;1.60;99.90;;;;;;5055130;28;20459;-80
2022/03/03 07:48:28;;;;;;;14.93;10.13;;;1.70;99.90;;;;;;5057670;28;20495;-78
2022/03/03 07:50:58;;;;;;;17.07;11.27;;;1.70;99.90;;;;;;5055234;28;20466;-81
2022/03/03 07:53:25;;;;;;;15.70;10.50;;;1.80;99.90;;;;;;5069133;28;21922;-81
2022/03/03 07:55:59;;;;;;;15.83;9.90;;;1.90;99.90;;;;;;5060667;28;20452;-81
2022/03/03 07:58:29;;;;;;;16.13;10.73;;;2.00;99.90;;;;;;5056563;28;20443;-81
2022/03/03 08:00:59;;;;;;;18.00;12.03;;;2.00;99.90;;;;;;5058104;28;20550;-82
2022/03/03 08:03:27;;;;;;;15.10;10.10;;;2.10;99.90;;;;;;5057504;28;20538;-81
2022/03/03 08:05:57;;;;;;;16.27;11.03;;;2.20;99.90;;;;;;5063002;28;20466;-82
2022/03/03 08:08:27;;;;;;;16.63;10.97;;;2.30;99.90;;;;;;5059083;28;20894;-82
2022/03/03 08:10:58;;;;;;;21.23;11.90;;;2.40;99.90;;;;;;5050825;28;20456;-81
2022/03/03 08:13:28;;;;;;;20.57;11.50;;;2.50;99.90;;;;;;5059116;28;20555;-81
2022/03/03 08:15:55;;;;;;;19.13;11.00;;;2.60;99.90;;;;;;5060302;28;20544;-82
2022/03/03 08:18:27;;;;;;;14.60;10.33;;;2.80;99.90;;;;;;5059898;28;20458;-80
2022/03/03 08:20:56;;;;;;;17.57;12.13;;;2.80;99.90;;;;;;5059291;28;20451;-80
2022/03/03 08:23:25;;;;;;;14.03;11.10;;;3.00;99.90;;;;;;5059009;28;20487;-81
2022/03/03 08:25:54;;;;;;;17.03;11.53;;;3.10;99.90;;;;;;5059279;28;20967;-82
2022/03/03 08:28:24;;;;;;;20.63;10.90;;;3.20;99.90;;;;;;5063517;28;20496;-81
2022/03/03 08:30:55;;;;;;;15.93;10.23;;;3.50;99.90;;;;;;5054696;28;20467;-80
2022/03/03 08:33:36;;;;;;;20.87;11.80;;;3.80;99.90;;;;;;5057381;28;20491;-81
2022/03/03 08:36:05;;;;;;;17.27;10.90;;;4.20;99.90;;;;;;5057485;28;20456;-80
2022/03/03 08:38:35;;;;;;;15.17;11.60;;;4.80;99.90;;;;;;5057640;28;20979;-81
2022/03/03 08:41:05;;;;;;;16.53;10.47;;;5.60;99.90;;;;;;5056978;28;20453;-81
2022/03/03 08:43:34;;;;;;;21.07;12.23;;;6.20;99.90;;;;;;5057303;28;20480;-81
2022/03/03 08:46:04;;;;;;;24.20;11.80;;;6.50;99.90;;;;;;5057695;28;20458;-82
2022/03/03 08:48:32;;;;;;;21.07;11.77;;;6.50;99.90;;;;;;5057723;28;20522;-80
2022/03/03 08:51:00;;;;;;;16.73;10.70;;;6.70;99.90;;;;;;5058536;28;20553;-80
2022/03/03 08:53:27;;;;;;;16.93;10.90;;;6.90;99.90;;;;;;5056590;28;20570;-80
2022/03/03 08:55:54;;;;;;;21.03;11.17;;;7.40;99.90;;;;;;5057014;28;20460;-81
2022/03/03 08:58:22;;;;;;;14.53;10.57;;;8.10;99.90;;;;;;5055976;28;20455;-78
2022/03/03 09:00:51;;;;;;;18.30;10.37;;;8.70;99.90;;;;;;5055742;28;20539;-80
2022/03/03 09:03:21;;;;;;;15.30;10.83;;;9.00;99.90;;;;;;5058119;28;20503;-80
2022/03/03 09:05:48;;;;;;;17.73;10.70;;;9.80;99.90;;;;;;5066409;28;21204;-81
2022/03/03 09:08:15;;;;;;;14.00;10.40;;;10.50;99.90;;;;;;5060755;28;20457;-80
2022/03/03 09:10:42;;;;;;;17.03;10.73;;;11.10;99.90;;;;;;5054373;28;20507;-80
2022/03/03 09:13:09;;;;;;;15.37;11.90;;;11.60;99.90;;;;;;5051493;28;20472;-78
2022/03/03 09:15:36;;;;;;;12.93;9.83;;;11.80;99.90;;;;;;5063402;28;20482;-80
2022/03/03 09:18:05;;;;;;;15.30;10.13;;;12.60;99.90;;;;;;5054530;28;20447;-79
2022/03/03 09:20:33;;;;;;;16.17;10.23;;;13.30;99.90;;;;;;5055309;28;20466;-80
2022/03/03 09:22:59;;;;;;;16.70;10.13;;;13.80;99.90;;;;;;5053514;28;20494;-79
2022/03/03 09:25:27;;;;;;;15.27;10.10;;;14.10;98.40;;;;;;5052551;28;20449;-79
2022/03/03 09:27:54;;;;;;;13.83;10.07;;;14.50;98.00;;;;;;5056222;28;20448;-80
2022/03/03 09:30:21;;;;;;;15.70;9.90;;;15.10;95.10;;;;;;5056520;28;20917;-80
2022/03/03 09:32:51;;;;;;;12.33;9.50;;;14.90;93.10;;;;;;5056708;28;20545;-80
2022/03/03 09:35:19;;;;;;;17.80;10.03;;;15.00;91.60;;;;;;5056703;28;20452;-80
2022/03/03 09:37:47;;;;;;;16.27;10.37;;;15.50;90.90;;;;;;5057129;28;20482;-79
2022/03/03 09:40:14;;;;;;;13.43;10.60;;;16.30;88.10;;;;;;5056836;28;20533;-81
2022/03/03 09:42:41;;;;;;;12.20;9.60;;;18.00;83.10;;;;;;5055790;28;20567;-79
2022/03/03 09:45:10;;;;;;;14.60;9.77;;;20.00;75.90;;;;;;5056601;28;20456;-81
2022/03/03 09:47:37;;;;;;;15.80;9.23;;;20.60;64.60;;;;;;5057433;28;20967;-80
2022/03/03 09:50:05;;;;;;;9.80;8.90;;;20.00;58.90;;;;;;5056256;28;20484;-82
2022/03/03 09:52:33;;;;;;;12.23;9.80;;;21.60;57.60;;;;;;5057416;28;20457;-82
2022/03/03 09:55:01;;;;;;;9.80;8.63;;;22.50;54.60;;;;;;5056809;28;20483;-80
2022/03/03 09:57:28;;;;;;;13.80;9.90;;;22.90;50.80;;;;;;5057604;28;20521;-80
2022/03/03 09:59:56;;;;;;;9.83;8.23;;;22.30;48.00;;;;;;5058840;28;20450;-81
2022/03/03 10:02:26;;;;;;;12.27;9.00;;;22.90;50.20;;;;;;5056860;28;20483;-80
2022/03/03 10:04:58;;;;;;;10.50;8.83;;;23.80;48.50;;;;;;5056584;28;20852;-79
2022/03/03 10:07:25;;;;;;;11.40;8.03;;;23.60;46.50;;;;;;5057032;28;20531;-80
2022/03/03 10:10:00;;;;;;;10.33;9.23;;;23.60;46.40;;;;;;5056671;28;20726;-80
2022/03/03 10:12:27;;;;;;;13.50;9.40;;;23.00;44.80;;;;;;5056372;28;20899;-81
2022/03/03 10:14:58;;;;;;;10.40;8.90;;;20.90;43.30;;;;;;5056390;28;20490;-80
2022/03/03 10:17:35;;;;;;;11.50;8.80;;;19.50;44.70;;;;;;5055589;28;20464;-79
2022/03/03 10:20:04;;;;;;;12.40;9.33;;;17.80;46.80;;;;;;5056494;28;20458;-80
2022/03/03 10:22:47;;;;;;;12.53;9.53;;;16.90;48.20;;;;;;5056823;28;20463;-81
2022/03/03 10:25:27;;;;;;;12.10;8.73;;;16.60;49.60;;;;;;5053485;28;20451;-80
2022/03/03 10:27:54;;;;;;;9.83;8.40;;;16.10;49.70;;;;;;5056776;28;20447;-80
2022/03/03 10:30:21;;;;;;;12.20;9.87;;;15.90;51.90;;;;;;5056029;28;20996;-80
2022/03/03 10:32:48;;;;;;;12.10;10.80;;;17.00;51.00;;;;;;5056637;28;20553;-81
2022/03/03 10:35:16;;;;;;;11.60;8.30;;;17.00;51.40;;;;;;5055554;28;20972;-80
2022/03/03 10:37:43;;;;;;;10.63;9.53;;;18.60;49.90;;;;;;5056051;28;20455;-80
2022/03/03 10:40:13;;;;;;;9.40;8.20;;;20.00;49.00;;;;;;5055596;28;20460;-80
2022/03/03 10:42:43;;;;;;;13.10;10.23;;;21.30;48.20;;;;;;5055874;28;20463;-79
2022/03/03 10:45:12;;;;;;;10.40;9.40;;;22.70;46.80;;;;;;5055021;28;20452;-80
2022/03/03 10:47:44;;;;;;;14.63;9.60;;;22.50;46.90;;;;;;5056679;28;20440;-81
2022/03/03 10:50:11;;;;;;;12.33;10.40;;;23.60;45.50;;;;;;5055033;28;20504;-80
2022/03/03 10:52:40;;;;;;;11.97;9.80;;;25.40;46.10;;;;;;5055227;28;20462;-80
2022/03/03 10:55:12;;;;;;;11.33;9.10;;;24.40;42.80;;;;;;5054169;28;20487;-80
2022/03/03 10:57:43;;;;;;;13.10;10.53;;;24.90;44.30;;;;;;5055789;28;20797;-80
2022/03/03 11:00:13;;;;;;;10.93;9.83;;;25.50;43.40;;;;;;5056385;28;20810;-79
2022/03/03 11:02:42;;;;;;;10.20;9.20;;;25.60;40.90;;;;;;5056159;28;20512;-80
2022/03/03 11:05:10;;;;;;;15.50;9.77;;;24.80;42.60;;;;;;5055322;28;20485;-80
2022/03/03 11:07:39;;;;;;;11.53;9.97;;;25.50;43.30;;;;;;5056345;28;20447;-80
2022/03/03 11:10:08;;;;;;;12.87;8.97;;;25.30;41.60;;;;;;5056049;28;20484;-80
2022/03/03 11:12:35;;;;;;;30.10;9.77;;;26.20;40.70;;;;;;5055712;28;20452;-81
2022/03/03 11:15:04;;;;;;;10.57;9.30;;;27.10;41.00;;;;;;5055454;28;20472;-80
2022/03/03 11:17:32;;;;;;;11.27;9.90;;;27.20;39.30;;;;;;5056348;28;20451;-81
2022/03/03 11:19:59;;;;;;;11.53;9.83;;;27.10;39.70;;;;;;5056071;28;20503;-79
2022/03/03 11:22:27;;;;;;;11.80;10.70;;;27.80;39.40;;;;;;5056202;28;20451;-82
2022/03/03 11:24:57;;;;;;;11.40;10.30;;;27.20;39.10;;;;;;5054983;28;20482;-81
2022/03/03 11:27:34;;;;;;;10.13;9.17;;;26.30;40.00;;;;;;5056668;28;20448;-79
2022/03/03 11:30:19;;;;;;;10.60;9.57;;;26.80;40.30;;;;;;5055482;28;20435;-79
2022/03/03 11:32:47;;;;;;;11.03;9.60;;;27.40;38.20;;;;;;5046425;28;20467;-79
2022/03/03 11:35:16;;;;;;;9.67;8.67;;;25.90;38.20;;;;;;5058541;28;20458;-79
2022/03/03 11:37:44;;;;;;;10.17;9.27;;;26.20;38.00;;;;;;5054792;28;20451;-81
2022/03/03 11:40:13;;;;;;;13.23;9.17;;;26.00;37.80;;;;;;5062512;28;20854;-80
2022/03/03 11:42:47;;;;;;;12.43;8.33;;;26.80;39.00;;;;;;5063315;28;20502;-79
2022/03/03 11:45:33;;;;;;;10.60;9.50;;;25.60;37.90;;;;;;5060867;28;20451;-79
2022/03/03 11:48:12;;;;;;;9.27;8.30;;;24.70;38.20;;;;;;5060766;28;20451;-79
2022/03/03 11:50:42;;;;;;;10.43;8.67;;;25.20;38.20;;;;;;5049456;28;20979;-82
2022/03/03 11:53:22;;;;;;;10.43;8.80;;;24.90;38.20;;;;;;5058334;28;20460;-79
2022/03/03 11:56:01;;;;;;;9.80;8.90;;;24.20;40.10;;;;;;5059517;28;20479;-81
2022/03/03 11:58:34;;;;;;;9.60;8.70;;;25.20;39.80;;;;;;5060371;28;20462;-80
2022/03/03 12:01:14;;;;;;;10.70;9.50;;;26.10;39.80;;;;;;5051922;28;20483;-81
2022/03/03 12:04:02;;;;;;;9.77;8.77;;;26.50;38.70;;;;;;5059337;28;20471;-81
2022/03/03 12:06:45;;;;;;;10.10;9.10;;;26.60;40.10;;;;;;5057018;28;20451;-81
2022/03/03 12:09:21;;;;;;;11.17;8.50;;;27.00;37.60;;;;;;5060326;28;20872;-82
2022/03/03 12:11:48;;;;;;;9.00;8.20;;;26.10;38.10;;;;;;5059151;28;20505;-81
2022/03/03 12:14:32;;;;;;;9.83;8.93;;;27.00;37.70;;;;;;5057940;28;20467;-82
2022/03/03 12:17:40;;;;;;;9.63;8.73;;;27.30;37.70;;;;;;5058407;28;20452;-80
2022/03/03 12:20:32;;;;;;;9.20;7.53;;;26.00;37.10;;;;;;4975804;28;20518;-81
2022/03/03 12:23:07;;;;;;;8.70;7.77;;;27.30;36.90;;;;;;4979306;28;20894;-79
2022/03/03 12:25:59;;;;;;;8.97;8.07;;;28.10;38.10;;;;;;5037678;28;20465;-79
2022/03/03 12:28:34;;;;;;;9.50;8.10;;;28.10;36.00;;;;;;5058198;28;20480;-80
2022/03/03 12:31:02;;;;;;;9.20;8.30;;;27.70;36.70;;;;;;5059196;28;20440;-81
2022/03/03 12:33:32;;;;;;;9.67;8.70;;;27.80;37.00;;;;;;5059649;28;20468;-82
2022/03/03 12:36:00;;;;;;;10.40;8.67;;;28.10;35.20;;;;;;5060259;28;20447;-82
2022/03/03 12:38:28;;;;;;;9.23;8.23;;;26.60;33.70;;;;;;5060499;28;20447;-81
2022/03/03 12:40:55;;;;;;;8.77;7.87;;;26.70;35.20;;;;;;5059615;28;20475;-81
2022/03/03 12:43:22;;;;;;;8.17;7.37;;;27.60;34.40;;;;;;5053682;28;20495;-81
2022/03/03 12:45:50;;;;;;;12.47;8.60;;;26.80;36.30;;;;;;5056296;28;20460;-82
2022/03/03 12:48:28;;;;;;;9.03;7.73;;;27.00;33.20;;;;;;5059594;28;20475;-82